createdAt,value
2018-07-14T00:01:39.028Z,100147.03
2018-07-14T00:04:06.727Z,100151.20
2018-07-14T00:06:34.422Z,100156.00
2018-07-14T00:09:02.075Z,100157.12
2018-07-14T00:11:29.709Z,100154.51
2018-07-14T00:13:57.349Z,100152.88
2018-07-14T00:16:25.440Z,100154.89
2018-07-14T00:18:53.104Z,100156.65
2018-07-14T00:21:20.730Z,100149.30
2018-07-14T00:23:48.399Z,100149.25
2018-07-14T00:26:19.082Z,100143.92
2018-07-14T00:28:47.206Z,100147.05
2018-07-14T00:31:14.954Z,100145.71
2018-07-14T00:33:42.617Z,100140.14
2018-07-14T00:36:10.206Z,100144.23
2018-07-14T00:38:37.858Z,100142.41
2018-07-14T00:41:05.471Z,100142.08
2018-07-14T00:43:33.124Z,100140.34
2018-07-14T00:46:00.729Z,100141.63
2018-07-14T00:48:28.321Z,100144.38
2018-07-14T00:50:55.983Z,100144.08
2018-07-14T00:53:23.559Z,100149.23
2018-07-14T00:55:51.216Z,100148.27
2018-07-14T00:58:18.866Z,100153.16
2018-07-14T01:00:46.541Z,100152.17
2018-07-14T01:03:14.161Z,100153.08
2018-07-14T01:05:41.751Z,100153.66
2018-07-14T01:08:09.427Z,100155.53
2018-07-14T01:10:37.152Z,100153.05
2018-07-14T01:13:04.859Z,100145.43
2018-07-14T01:15:32.494Z,100144.55
2018-07-14T01:18:00.059Z,100145.74
2018-07-14T01:20:27.715Z,100150.86
2018-07-14T01:22:55.301Z,100145.50
2018-07-14T01:25:22.863Z,100146.23
2018-07-14T01:27:50.417Z,100136.81
2018-07-14T01:30:18.105Z,100136.92
2018-07-14T01:32:45.689Z,100140.72
2018-07-14T01:35:13.294Z,100142.65
2018-07-14T01:37:40.864Z,100149.86
2018-07-14T01:40:08.494Z,100154.19
2018-07-14T01:42:36.186Z,100160.48
2018-07-14T01:45:03.894Z,100166.39
2018-07-14T01:47:31.538Z,100168.75
2018-07-14T01:49:59.086Z,100171.42
2018-07-14T01:52:26.817Z,100171.38
2018-07-14T01:54:54.513Z,100162.64
2018-07-14T01:57:22.098Z,100163.06
2018-07-14T01:59:49.709Z,100157.98
2018-07-14T02:02:17.380Z,100152.50
2018-07-14T02:04:45.083Z,100149.61
2018-07-14T02:07:12.779Z,100144.31
2018-07-14T02:09:40.396Z,100152.66
2018-07-14T02:12:08.406Z,100149.92
2018-07-14T02:14:35.989Z,100147.70
2018-07-14T02:17:03.715Z,100155.80
2018-07-14T02:19:31.282Z,100151.69
2018-07-14T02:21:58.866Z,100153.53
2018-07-14T02:24:26.438Z,100150.78
2018-07-14T02:26:54.124Z,100152.27
2018-07-14T02:29:21.691Z,100146.28
2018-07-14T02:31:49.433Z,100146.40
2018-07-14T02:34:17.017Z,100148.53
2018-07-14T02:36:44.666Z,100150.48
2018-07-14T02:39:12.330Z,100152.03
2018-07-14T02:41:39.901Z,100152.91
2018-07-14T02:44:07.580Z,100156.54
2018-07-14T02:46:35.227Z,100157.44
2018-07-14T02:49:02.862Z,100152.22
2018-07-14T02:51:30.528Z,100154.28
2018-07-14T02:53:58.139Z,100150.07
2018-07-14T02:56:25.842Z,100142.17
2018-07-14T02:58:53.583Z,100146.30
2018-07-14T03:01:21.175Z,100146.80
2018-07-14T03:03:48.854Z,100149.06
2018-07-14T03:06:16.420Z,100150.56
2018-07-14T03:08:44.031Z,100151.27
2018-07-14T03:11:11.679Z,100156.73
2018-07-14T03:13:39.259Z,100156.14
2018-07-14T03:16:06.903Z,100160.31
2018-07-14T03:18:34.499Z,100153.41
2018-07-14T03:21:02.098Z,100153.78
2018-07-14T03:23:29.724Z,100153.38
2018-07-14T03:25:57.336Z,100152.78
2018-07-14T03:28:24.945Z,100150.66
2018-07-14T03:30:52.606Z,100158.07
2018-07-14T03:33:20.239Z,100160.19
2018-07-14T03:35:47.841Z,100161.31
2018-07-14T03:38:15.419Z,100164.91
2018-07-14T03:40:44.043Z,100164.52
2018-07-14T03:43:11.662Z,100167.02
2018-07-14T03:45:39.290Z,100160.98
2018-07-14T03:48:07.017Z,100159.53
2018-07-14T03:50:34.646Z,100162.84
2018-07-14T03:53:02.254Z,100160.44
2018-07-14T03:55:29.843Z,100163.36
2018-07-14T03:57:57.488Z,100160.38
2018-07-14T04:00:25.090Z,100159.55
2018-07-14T04:02:52.720Z,100157.88
2018-07-14T04:05:20.318Z,100158.05
2018-07-14T04:07:47.901Z,100165.39
2018-07-14T04:10:35.164Z,100163.66
2018-07-14T04:13:02.883Z,100164.95
2018-07-14T04:15:30.492Z,100160.06
2018-07-14T04:18:03.662Z,100166.30
2018-07-14T04:20:31.810Z,100162.45
2018-07-14T04:22:59.897Z,100161.79
2018-07-14T04:25:27.466Z,100167.45
2018-07-14T04:27:55.211Z,100168.08
2018-07-14T04:30:22.770Z,100172.57
2018-07-14T04:32:50.513Z,100165.43
2018-07-14T04:35:18.202Z,100168.78
2018-07-14T04:37:45.770Z,100175.64
2018-07-14T04:40:13.389Z,100171.72
2018-07-14T04:42:41.050Z,100175.70
2018-07-14T04:45:08.631Z,100170.22
2018-07-14T04:47:36.283Z,100172.59
2018-07-14T04:50:03.887Z,100177.38
2018-07-14T04:52:31.499Z,100185.16
2018-07-14T04:54:59.174Z,100174.83
2018-07-14T04:57:26.757Z,100184.38
2018-07-14T04:59:54.355Z,100182.61
2018-07-14T05:02:22.050Z,100180.72
2018-07-14T05:04:49.674Z,100186.68
2018-07-14T05:07:17.261Z,100184.98
2018-07-14T05:09:44.884Z,100180.45
2018-07-14T05:12:12.518Z,100183.51
2018-07-14T05:14:40.078Z,100187.55
2018-07-14T05:17:07.752Z,100184.06
2018-07-14T05:19:35.400Z,100183.98
2018-07-14T05:22:03.287Z,100189.50
2018-07-14T05:24:30.917Z,100190.86
2018-07-14T05:26:58.473Z,100188.30
2018-07-14T05:29:26.192Z,100194.09
2018-07-14T05:31:53.798Z,100183.04
2018-07-14T05:34:21.463Z,100191.72
2018-07-14T05:36:49.126Z,100192.04
2018-07-14T05:39:16.942Z,100192.59
2018-07-14T05:41:44.507Z,100197.62
2018-07-14T05:44:12.106Z,100188.14
2018-07-14T05:46:39.806Z,100191.44
2018-07-14T05:49:07.495Z,100192.72
2018-07-14T05:51:35.085Z,100197.29
2018-07-14T05:54:02.718Z,100194.36
2018-07-14T05:56:30.295Z,100196.86
2018-07-14T05:58:58.065Z,100196.47
2018-07-14T06:01:25.739Z,100199.05
2018-07-14T06:03:53.492Z,100196.81
2018-07-14T06:06:21.106Z,100195.47
2018-07-14T06:08:48.837Z,100204.40
2018-07-14T06:11:16.674Z,100193.44
2018-07-14T06:13:44.491Z,100193.86
2018-07-14T06:16:12.148Z,100201.85
2018-07-14T06:18:39.832Z,100195.17
2018-07-14T06:21:07.481Z,100196.63
2018-07-14T06:23:35.141Z,100202.53
2018-07-14T06:26:02.716Z,100204.50
2018-07-14T06:28:30.342Z,100202.66
2018-07-14T06:30:58.044Z,100195.52
2018-07-14T06:33:25.643Z,100202.70
2018-07-14T06:35:53.383Z,100205.03
2018-07-14T06:38:21.053Z,100201.48
2018-07-14T06:40:48.687Z,100202.98
2018-07-14T06:43:16.406Z,100212.05
2018-07-14T06:45:44.006Z,100209.47
2018-07-14T06:48:11.635Z,100210.52
2018-07-14T06:50:39.314Z,100208.72
2018-07-14T06:53:06.906Z,100206.03
2018-07-14T06:55:34.563Z,100208.00
2018-07-14T06:58:02.169Z,100206.37
2018-07-14T07:00:29.872Z,100201.54
2018-07-14T07:02:57.590Z,100203.75
2018-07-14T07:05:25.205Z,100206.47
2018-07-14T07:07:52.870Z,100213.44
2018-07-14T07:10:37.230Z,100206.73
2018-07-14T07:13:04.886Z,100217.16
2018-07-14T07:15:32.586Z,100209.70
2018-07-14T07:18:00.198Z,100216.67
2018-07-14T07:20:27.899Z,100208.61
2018-07-14T07:22:55.705Z,100208.07
2018-07-14T07:25:24.175Z,100204.85
2018-07-14T07:27:52.147Z,100207.79
2018-07-14T07:30:19.811Z,100208.25
2018-07-14T07:32:55.283Z,100212.34
2018-07-14T07:35:22.967Z,100204.01
2018-07-14T07:37:50.557Z,100208.27
2018-07-14T07:40:18.183Z,100202.88
2018-07-14T07:42:45.893Z,100200.72
2018-07-14T07:45:13.519Z,100201.95
2018-07-14T07:47:41.170Z,100201.34
2018-07-14T07:50:08.794Z,100202.30
2018-07-14T07:52:37.149Z,100195.83
2018-07-14T07:55:04.830Z,100191.15
2018-07-14T07:57:32.601Z,100195.86
2018-07-14T08:00:00.211Z,100193.09
2018-07-14T08:02:27.807Z,100190.45
2018-07-14T08:04:55.426Z,100192.11
2018-07-14T08:07:23.046Z,100193.23
2018-07-14T08:09:50.658Z,100190.88
2018-07-14T08:12:18.362Z,100190.27
2018-07-14T08:14:45.975Z,100185.52
2018-07-14T08:17:13.663Z,100184.82
2018-07-14T08:19:41.313Z,100186.89
2018-07-14T08:22:09.014Z,100188.39
2018-07-14T08:24:36.741Z,100184.06
2018-07-14T08:27:04.636Z,100191.59
2018-07-14T08:29:32.266Z,100184.08
2018-07-14T08:31:59.905Z,100183.19
2018-07-14T08:34:27.456Z,100179.52
2018-07-14T08:36:55.074Z,100184.40
2018-07-14T08:39:22.751Z,100184.99
2018-07-14T08:41:50.374Z,100181.14
2018-07-14T08:44:18.069Z,100180.19
2018-07-14T08:46:45.662Z,100176.70
2018-07-14T08:49:20.222Z,100184.89
2018-07-14T08:51:47.870Z,100183.79
2018-07-14T08:54:15.635Z,100179.84
2018-07-14T08:56:43.311Z,100177.58
2018-07-14T08:59:10.902Z,100174.20
2018-07-14T09:01:38.526Z,100167.00
2018-07-14T09:04:06.214Z,100171.63
2018-07-14T09:06:33.790Z,100168.98
2018-07-14T09:09:01.451Z,100165.53
2018-07-14T09:11:29.090Z,100170.75
2018-07-14T09:13:56.751Z,100163.66
2018-07-14T09:16:24.448Z,100162.63
2018-07-14T09:18:51.993Z,100160.83
2018-07-14T09:21:19.715Z,100158.99
2018-07-14T09:23:47.389Z,100154.58
2018-07-14T09:26:15.213Z,100154.49
2018-07-14T09:28:42.817Z,100153.92
2018-07-14T09:31:10.454Z,100159.02
2018-07-14T09:33:38.098Z,100162.28
2018-07-14T09:36:05.805Z,100150.56
2018-07-14T09:38:33.372Z,100149.30
2018-07-14T09:41:01.067Z,100150.33
2018-07-14T09:43:28.678Z,100148.64
2018-07-14T09:45:56.365Z,100142.93
2018-07-14T09:48:23.965Z,100139.56
2018-07-14T09:50:51.675Z,100139.59
2018-07-14T09:53:19.444Z,100138.69
2018-07-14T09:55:47.251Z,100136.75
2018-07-14T09:58:17.019Z,100134.52
2018-07-14T10:00:50.478Z,100135.50
2018-07-14T10:03:18.225Z,100131.82
2018-07-14T10:05:45.843Z,100126.50
2018-07-14T10:08:13.504Z,100129.73
2018-07-14T10:10:41.137Z,100124.73
2018-07-14T10:13:08.859Z,100122.06
2018-07-14T10:15:36.530Z,100120.66
2018-07-14T10:18:04.170Z,100119.92
2018-07-14T10:20:31.793Z,100118.57
2018-07-14T10:22:59.487Z,100111.05
2018-07-14T10:25:27.090Z,100105.33
2018-07-14T10:27:54.698Z,100104.09
2018-07-14T10:30:22.351Z,100101.87
2018-07-14T10:32:50.068Z,100101.99
2018-07-14T10:35:17.815Z,100104.05
2018-07-14T10:37:45.461Z,100103.77
2018-07-14T10:40:13.159Z,100107.34
2018-07-14T10:42:40.870Z,100102.74
2018-07-14T10:45:08.657Z,100096.78
2018-07-14T10:47:36.370Z,100099.75
2018-07-14T10:50:03.974Z,100096.05
2018-07-14T10:52:31.694Z,100090.98
2018-07-14T10:54:59.577Z,100089.42
2018-07-14T10:57:27.246Z,100089.00
2018-07-14T10:59:54.898Z,100090.84
2018-07-14T11:02:22.494Z,100086.41
2018-07-14T11:04:50.183Z,100087.15
2018-07-14T11:07:17.802Z,100082.11
2018-07-14T11:09:45.534Z,100081.31
2018-07-14T11:12:13.287Z,100075.95
2018-07-14T11:14:40.842Z,100073.48
2018-07-14T11:17:08.575Z,100071.25
2018-07-14T11:19:36.268Z,100062.73
2018-07-14T11:22:03.945Z,100068.14
2018-07-14T11:24:31.698Z,100057.69
2018-07-14T11:26:59.321Z,100061.52
2018-07-14T11:29:27.013Z,100061.13
2018-07-14T11:31:54.602Z,100065.80
2018-07-14T11:34:22.259Z,100065.48
2018-07-14T11:36:50.278Z,100050.46
2018-07-14T11:39:17.892Z,100051.81
2018-07-14T11:41:45.590Z,100052.62
2018-07-14T11:44:13.398Z,100046.83
2018-07-14T11:46:40.990Z,100046.51
2018-07-14T11:49:08.708Z,100048.09
2018-07-14T11:51:36.358Z,100048.98
2018-07-14T11:54:04.105Z,100041.80
2018-07-14T11:56:32.330Z,100038.64
2018-07-14T11:58:59.940Z,100042.96
2018-07-14T12:01:27.930Z,100035.86
2018-07-14T12:03:55.610Z,100041.10
2018-07-14T12:06:23.220Z,100036.54
2018-07-14T12:08:50.826Z,100028.77
2018-07-14T12:11:18.490Z,100027.50
2018-07-14T12:13:46.113Z,100021.77
2018-07-14T12:16:13.897Z,100011.73
2018-07-14T12:18:41.505Z,100012.61
2018-07-14T12:21:09.141Z,100009.11
2018-07-14T12:23:36.735Z,100006.36
2018-07-14T12:26:04.573Z,100001.05
2018-07-14T12:31:06.719Z,99996.16
2018-07-14T12:33:34.437Z,99990.02
2018-07-14T12:36:02.131Z,99994.84
2018-07-14T12:38:29.758Z,99990.09
2018-07-14T12:40:57.414Z,99994.40
2018-07-14T12:43:25.020Z,99987.38
2018-07-14T12:45:52.590Z,99985.28
2018-07-14T12:48:20.274Z,99986.53
2018-07-14T12:50:47.897Z,99986.36
2018-07-14T12:53:15.625Z,99975.23
2018-07-14T12:55:43.267Z,99982.91
2018-07-14T12:58:10.934Z,99980.33
2018-07-14T13:00:38.573Z,99970.92
2018-07-14T13:03:06.199Z,99976.66
2018-07-14T13:05:33.842Z,99964.83
2018-07-14T13:08:01.465Z,99962.66
2018-07-14T13:10:35.790Z,99961.50
2018-07-14T13:13:03.487Z,99963.47
2018-07-14T13:15:31.078Z,99968.28
2018-07-14T13:17:58.810Z,99958.78
2018-07-14T13:20:26.425Z,99962.47
2018-07-14T13:22:54.179Z,99961.73
2018-07-14T13:25:21.877Z,99961.03
2018-07-14T13:27:49.586Z,99960.55
2018-07-14T13:30:17.394Z,99957.41
2018-07-14T13:32:44.978Z,99962.13
2018-07-14T13:35:12.565Z,99959.33
2018-07-14T13:37:40.179Z,99960.70
2018-07-14T13:40:14.654Z,99955.41
2018-07-14T13:42:42.281Z,99950.33
2018-07-14T13:45:13.058Z,99948.19
2018-07-14T13:47:40.852Z,99943.29
2018-07-14T13:50:08.562Z,99940.91
2018-07-14T13:52:36.195Z,99938.17
2018-07-14T13:55:03.914Z,99928.84
2018-07-14T13:57:31.653Z,99936.53
2018-07-14T13:59:59.282Z,99931.80
2018-07-14T14:02:26.891Z,99937.37
2018-07-14T14:04:54.662Z,99935.14
2018-07-14T14:07:22.377Z,99929.47
2018-07-14T14:09:50.056Z,99923.71
2018-07-14T14:12:17.756Z,99927.69
2018-07-14T14:14:46.326Z,99927.80
2018-07-14T14:17:13.982Z,99917.22
2018-07-14T14:19:41.585Z,99911.44
2018-07-14T14:22:09.302Z,99906.98
2018-07-14T14:24:36.934Z,99909.27
2018-07-14T14:27:04.704Z,99904.84
2018-07-14T14:29:32.373Z,99896.52
2018-07-14T14:32:00.098Z,99894.02
2018-07-14T14:34:27.707Z,99894.19
2018-07-14T14:36:55.331Z,99888.58
2018-07-14T14:39:22.938Z,99880.13
2018-07-14T14:41:50.610Z,99881.16
2018-07-14T14:44:18.272Z,99885.23
2018-07-14T14:46:45.872Z,99882.74
2018-07-14T14:49:13.561Z,99885.52
2018-07-14T14:51:41.215Z,99883.64
2018-07-14T14:54:08.818Z,99890.19
2018-07-14T14:56:36.435Z,99896.25
2018-07-14T14:59:04.046Z,99891.05
2018-07-14T15:01:31.679Z,99889.08
2018-07-14T15:03:59.294Z,99889.61
2018-07-14T15:06:27.010Z,99885.90
2018-07-14T15:08:54.610Z,99876.20
2018-07-14T15:11:22.345Z,99880.47
2018-07-14T15:13:50.026Z,99882.62
2018-07-14T15:16:17.639Z,99880.36
2018-07-14T15:18:45.246Z,99876.16
2018-07-14T15:21:12.881Z,99880.20
2018-07-14T15:23:40.507Z,99873.41
2018-07-14T15:26:08.187Z,99883.84
2018-07-14T15:28:35.889Z,99876.20
2018-07-14T15:31:03.515Z,99874.62
2018-07-14T15:33:31.177Z,99879.30
2018-07-14T15:35:58.808Z,99865.78
2018-07-14T15:38:26.404Z,99862.25
2018-07-14T15:40:54.116Z,99862.27
2018-07-14T15:43:21.755Z,99867.64
2018-07-14T15:45:49.385Z,99861.58
2018-07-14T15:48:16.991Z,99862.19
2018-07-14T15:50:44.563Z,99864.06
2018-07-14T15:53:12.257Z,99866.22
2018-07-14T15:55:39.834Z,99858.87
2018-07-14T15:58:07.529Z,99865.82
2018-07-14T16:00:35.121Z,99862.78
2018-07-14T16:03:02.724Z,99860.50
2018-07-14T16:05:30.398Z,99854.97
2018-07-14T16:07:58.067Z,99855.63
2018-07-14T16:10:35.683Z,99854.19
2018-07-14T16:13:03.594Z,99854.33
2018-07-14T16:15:31.231Z,99850.91
2018-07-14T16:17:58.954Z,99851.31
2018-07-14T16:20:26.642Z,99853.46
2018-07-14T16:22:54.223Z,99855.08
2018-07-14T16:25:22.058Z,99846.93
2018-07-14T16:27:49.694Z,99844.59
2018-07-14T16:30:17.381Z,99842.86
2018-07-14T16:32:45.098Z,99850.27
2018-07-14T16:35:12.832Z,99846.41
2018-07-14T16:37:40.768Z,99848.78
2018-07-14T16:40:08.435Z,99852.09
2018-07-14T16:42:36.035Z,99856.59
2018-07-14T16:45:04.638Z,99847.12
2018-07-14T16:47:32.246Z,99851.20
2018-07-14T16:49:59.949Z,99849.00
2018-07-14T16:52:27.498Z,99844.33
2018-07-14T16:54:55.109Z,99843.73
2018-07-14T16:57:23.023Z,99839.55
2018-07-14T16:59:50.715Z,99838.23
2018-07-14T17:02:18.300Z,99837.33
2018-07-14T17:04:45.954Z,99840.41
2018-07-14T17:07:13.766Z,99843.48
2018-07-14T17:09:41.413Z,99843.05
2018-07-14T17:12:09.180Z,99841.96
2018-07-14T17:14:36.767Z,99838.36
2018-07-14T17:17:04.642Z,99838.36
2018-07-14T17:19:32.365Z,99842.20
2018-07-14T17:22:00.318Z,99839.63
2018-07-14T17:24:28.022Z,99841.09
2018-07-14T17:26:56.027Z,99836.20
2018-07-14T17:29:24.698Z,99831.00
2018-07-14T17:31:52.603Z,99824.22
2018-07-14T17:34:20.561Z,99821.03
2018-07-14T17:36:48.325Z,99822.00
2018-07-14T17:39:15.923Z,99823.83
2018-07-14T17:41:43.889Z,99822.62
2018-07-14T17:44:12.303Z,99821.23
2018-07-14T17:46:41.266Z,99822.88
2018-07-14T17:49:08.927Z,99822.28
2018-07-14T17:51:36.650Z,99825.28
2018-07-14T17:54:05.599Z,99824.80
2018-07-14T17:56:33.366Z,99827.25
2018-07-14T17:59:02.279Z,99822.52
2018-07-14T18:01:33.878Z,99815.34
2018-07-14T18:04:01.753Z,99822.41
2018-07-14T18:06:30.107Z,99819.77
2018-07-14T18:08:57.894Z,99817.70
2018-07-14T18:11:26.602Z,99820.01
2018-07-14T18:13:54.736Z,99818.70
2018-07-14T18:16:23.026Z,99818.28
2018-07-14T18:18:50.851Z,99813.47
2018-07-14T18:21:18.896Z,99816.47
2018-07-14T18:23:46.707Z,99816.47
2018-07-14T18:26:14.768Z,99818.06
2018-07-14T18:28:44.703Z,99819.50
2018-07-14T18:31:12.790Z,99820.68
2018-07-14T18:33:41.133Z,99821.14
2018-07-14T18:36:09.641Z,99824.16
2018-07-14T18:38:37.629Z,99819.70
2018-07-14T18:41:05.458Z,99820.81
2018-07-14T18:43:33.090Z,99820.13
2018-07-14T18:46:00.882Z,99821.30
2018-07-14T18:48:28.630Z,99827.31
2018-07-14T18:50:56.769Z,99822.53
2018-07-14T18:53:25.008Z,99829.33
2018-07-14T18:55:52.607Z,99827.81
2018-07-14T18:58:20.352Z,99826.61
2018-07-14T19:00:47.990Z,99833.39
2018-07-14T19:03:15.847Z,99831.31
2018-07-14T19:05:43.624Z,99827.38
2018-07-14T19:08:11.246Z,99826.98
2018-07-14T19:10:39.442Z,99826.53
2018-07-14T19:13:07.475Z,99831.42
2018-07-14T19:15:35.319Z,99831.78
2018-07-14T19:18:03.686Z,99835.09
2018-07-14T19:20:31.385Z,99836.27
2018-07-14T19:22:58.972Z,99831.83
2018-07-14T19:25:27.181Z,99835.98
2018-07-14T19:27:54.854Z,99835.52
2018-07-14T19:30:23.010Z,99843.13
2018-07-14T19:32:50.647Z,99845.87
2018-07-14T19:35:18.378Z,99852.11
2018-07-14T19:37:46.058Z,99852.95
2018-07-14T19:40:13.698Z,99852.48
2018-07-14T19:42:41.320Z,99859.04
2018-07-14T19:45:09.214Z,99854.52
2018-07-14T19:47:36.810Z,99858.91
2018-07-14T19:50:04.530Z,99864.33
2018-07-14T19:52:32.269Z,99872.42
2018-07-14T19:54:59.923Z,99872.18
2018-07-14T19:57:27.659Z,99869.53
2018-07-14T19:59:55.274Z,99874.41
2018-07-14T20:02:22.937Z,99873.39
2018-07-14T20:04:50.595Z,99871.28
2018-07-14T20:07:18.299Z,99871.57
2018-07-14T20:09:45.917Z,99876.17
2018-07-14T20:12:13.528Z,99878.05
2018-07-14T20:14:41.154Z,99874.59
2018-07-14T20:17:08.811Z,99873.52
2018-07-14T20:19:36.428Z,99874.10
2018-07-14T20:22:04.183Z,99877.33
2018-07-14T20:24:31.892Z,99876.79
2018-07-14T20:26:59.562Z,99876.81
2018-07-14T20:29:27.158Z,99882.70
2018-07-14T20:31:54.762Z,99876.00
2018-07-14T20:34:22.523Z,99878.70
2018-07-14T20:36:50.272Z,99881.38
2018-07-14T20:39:17.849Z,99884.03
2018-07-14T20:41:45.683Z,99880.84
2018-07-14T20:44:13.255Z,99882.42
2018-07-14T20:46:41.575Z,99883.22
2018-07-14T20:49:09.231Z,99884.84
2018-07-14T20:51:36.924Z,99882.69
2018-07-14T20:54:05.313Z,99888.59
2018-07-14T20:56:32.938Z,99882.66
2018-07-14T20:59:00.710Z,99886.16
2018-07-14T21:01:28.357Z,99879.20
2018-07-14T21:03:55.979Z,99882.39
2018-07-14T21:06:23.738Z,99876.23
2018-07-14T21:08:51.382Z,99876.72
2018-07-14T21:11:19.026Z,99881.79
2018-07-14T21:13:46.704Z,99882.86
2018-07-14T21:16:14.340Z,99876.14
2018-07-14T21:18:42.145Z,99879.63
2018-07-14T21:21:09.831Z,99877.98
2018-07-14T21:23:37.334Z,99877.94
2018-07-14T21:26:05.015Z,99881.66
2018-07-14T21:28:32.629Z,99885.67
2018-07-14T21:31:00.470Z,99882.42
2018-07-14T21:33:28.178Z,99887.25
2018-07-14T21:35:55.779Z,99888.25
2018-07-14T21:38:23.447Z,99890.09
2018-07-14T21:40:51.050Z,99886.34
2018-07-14T21:43:18.649Z,99886.05
2018-07-14T21:45:46.275Z,99891.63
2018-07-14T21:48:13.846Z,99892.64
2018-07-14T21:50:41.536Z,99895.84
2018-07-14T21:53:09.184Z,99890.03
2018-07-14T21:55:36.778Z,99891.45
2018-07-14T21:58:04.418Z,99896.45
2018-07-14T22:00:37.930Z,99899.27
2018-07-14T22:03:06.486Z,99902.50
2018-07-14T22:05:34.160Z,99902.92
2018-07-14T22:08:01.799Z,99908.16
2018-07-14T22:10:36.331Z,99912.19
2018-07-14T22:13:03.958Z,99910.55
2018-07-14T22:15:31.564Z,99913.56
2018-07-14T22:17:59.202Z,99917.63
2018-07-14T22:20:26.842Z,99922.45
2018-07-14T22:22:54.454Z,99919.44
2018-07-14T22:25:22.258Z,99919.77
2018-07-14T22:27:49.877Z,99916.34
2018-07-14T22:30:17.530Z,99918.86
2018-07-14T22:32:45.195Z,99920.38
2018-07-14T22:35:12.889Z,99923.07
2018-07-14T22:37:40.526Z,99926.65
2018-07-14T22:40:08.185Z,99926.64
2018-07-14T22:42:35.862Z,99926.94
2018-07-14T22:45:03.761Z,99929.13
2018-07-14T22:47:31.370Z,99929.79
2018-07-14T22:49:59.082Z,99920.44
2018-07-14T22:52:26.705Z,99921.23
2018-07-14T22:54:54.360Z,99927.52
2018-07-14T22:57:22.023Z,99919.90
2018-07-14T22:59:49.606Z,99923.72
2018-07-14T23:02:17.233Z,99926.19
2018-07-14T23:04:44.794Z,99919.83
2018-07-14T23:07:12.824Z,99919.25
2018-07-14T23:09:41.789Z,99918.44
2018-07-14T23:12:09.421Z,99917.09
2018-07-14T23:14:36.995Z,99912.97
2018-07-14T23:17:04.663Z,99911.94
2018-07-14T23:19:32.212Z,99921.67
2018-07-14T23:21:59.877Z,99913.14
2018-07-14T23:24:27.770Z,99918.98
2018-07-14T23:26:55.358Z,99918.75
2018-07-14T23:29:23.077Z,99916.84
2018-07-14T23:31:50.657Z,99925.66
2018-07-14T23:34:18.256Z,99920.13
2018-07-14T23:36:45.926Z,99919.95
2018-07-14T23:39:13.590Z,99920.69
2018-07-14T23:41:41.250Z,99914.36
2018-07-14T23:44:08.827Z,99906.10
2018-07-14T23:46:36.474Z,99905.98
2018-07-14T23:49:04.216Z,99906.56
2018-07-14T23:51:31.794Z,99903.72
2018-07-14T23:53:59.533Z,99904.39
2018-07-14T23:56:27.098Z,99899.14
2018-07-14T23:58:54.682Z,99894.63
